sensor_id;sensor_type;location;lat;lon;timestamp;temperature;humidity
20594;DHT22;10455;48.732;10.266;2022-07-22T00:04:56;15.50;99.90
20594;DHT22;10455;48.732;10.266;2022-07-22T00:09:59;15.40;99.90
20594;DHT22;10455;48.732;10.266;2022-07-22T00:15:01;15.30;99.90
20594;DHT22;10455;48.732;10.266;2022-07-22T00:20:06;15.20;99.90
20594;DHT22;10455;48.732;10.266;2022-07-22T00:25:09;15.20;99.90
20594;DHT22;10455;48.732;10.266;2022-07-22T00:30:12;15.10;99.90
20594;DHT22;10455;48.732;10.266;2022-07-22T00:35:15;15.00;99.90
20594;DHT22;10455;48.732;10.266;2022-07-22T00:40:17;15.00;99.90
20594;DHT22;10455;48.732;10.266;2022-07-22T00:45:20;14.90;99.90
20594;DHT22;10455;48.732;10.266;2022-07-22T00:50:23;14.90;99.90
20594;DHT22;10455;48.732;10.266;2022-07-22T00:55:26;14.90;99.90
20594;DHT22;10455;48.732;10.266;2022-07-22T01:00:28;14.90;99.90
20594;DHT22;10455;48.732;10.266;2022-07-22T01:05:32;14.80;99.90
20594;DHT22;10455;48.732;10.266;2022-07-22T01:10:35;14.70;99.90
20594;DHT22;10455;48.732;10.266;2022-07-22T01:15:37;14.60;99.90
20594;DHT22;10455;48.732;10.266;2022-07-22T01:20:41;14.50;99.90
20594;DHT22;10455;48.732;10.266;2022-07-22T01:25:43;14.50;99.90
20594;DHT22;10455;48.732;10.266;2022-07-22T01:30:45;14.40;99.90
20594;DHT22;10455;48.732;10.266;2022-07-22T01:35:49;14.30;99.90
20594;DHT22;10455;48.732;10.266;2022-07-22T01:40:51;14.30;99.90
20594;DHT22;10455;48.732;10.266;2022-07-22T01:45:54;14.30;99.90
20594;DHT22;10455;48.732;10.266;2022-07-22T01:50:58;14.20;99.90
20594;DHT22;10455;48.732;10.266;2022-07-22T01:56:00;14.10;99.90
20594;DHT22;10455;48.732;10.266;2022-07-22T02:01:04;14.10;99.90
20594;DHT22;10455;48.732;10.266;2022-07-22T02:06:07;14.00;99.90
20594;DHT22;10455;48.732;10.266;2022-07-22T02:11:10;14.00;99.90
20594;DHT22;10455;48.732;10.266;2022-07-22T02:16:12;14.00;99.90
20594;DHT22;10455;48.732;10.266;2022-07-22T02:21:16;13.90;99.90
20594;DHT22;10455;48.732;10.266;2022-07-22T02:26:18;13.80;99.90
20594;DHT22;10455;48.732;10.266;2022-07-22T02:31:20;13.80;99.90
20594;DHT22;10455;48.732;10.266;2022-07-22T02:36:24;13.80;99.90
20594;DHT22;10455;48.732;10.266;2022-07-22T02:41:26;13.70;99.90
20594;DHT22;10455;48.732;10.266;2022-07-22T02:46:28;13.70;99.90
20594;DHT22;10455;48.732;10.266;2022-07-22T02:51:32;13.80;99.90
20594;DHT22;10455;48.732;10.266;2022-07-22T02:56:34;13.60;99.90
20594;DHT22;10455;48.732;10.266;2022-07-22T03:01:37;13.60;99.90
20594;DHT22;10455;48.732;10.266;2022-07-22T03:06:40;13.60;99.90
20594;DHT22;10455;48.732;10.266;2022-07-22T03:11:42;13.60;99.90
20594;DHT22;10455;48.732;10.266;2022-07-22T03:16:45;13.50;99.90
20594;DHT22;10455;48.732;10.266;2022-07-22T03:21:48;13.50;99.90
20594;DHT22;10455;48.732;10.266;2022-07-22T03:26:50;13.50;99.90
20594;DHT22;10455;48.732;10.266;2022-07-22T03:31:53;13.30;99.90
20594;DHT22;10455;48.732;10.266;2022-07-22T03:36:56;13.30;99.90
20594;DHT22;10455;48.732;10.266;2022-07-22T03:41:59;13.40;99.90
20594;DHT22;10455;48.732;10.266;2022-07-22T03:47:01;13.40;99.90
20594;DHT22;10455;48.732;10.266;2022-07-22T03:52:05;13.50;99.90
20594;DHT22;10455;48.732;10.266;2022-07-22T03:57:07;13.60;99.90
20594;DHT22;10455;48.732;10.266;2022-07-22T04:02:09;13.60;99.90
20594;DHT22;10455;48.732;10.266;2022-07-22T04:07:12;13.70;99.90
20594;DHT22;10455;48.732;10.266;2022-07-22T04:12:15;13.80;99.90
20594;DHT22;10455;48.732;10.266;2022-07-22T04:17:17;13.90;99.90
20594;DHT22;10455;48.732;10.266;2022-07-22T04:22:20;13.90;99.90
20594;DHT22;10455;48.732;10.266;2022-07-22T04:27:23;14.40;99.90
20594;DHT22;10455;48.732;10.266;2022-07-22T04:32:25;14.60;99.90
20594;DHT22;10455;48.732;10.266;2022-07-22T04:37:29;14.90;99.90
20594;DHT22;10455;48.732;10.266;2022-07-22T04:42:31;15.40;99.90
20594;DHT22;10455;48.732;10.266;2022-07-22T04:47:33;18.50;99.90
20594;DHT22;10455;48.732;10.266;2022-07-22T04:52:37;22.20;99.90
20594;DHT22;10455;48.732;10.266;2022-07-22T04:57:39;24.40;99.90
20594;DHT22;10455;48.732;10.266;2022-07-22T05:02:41;26.20;99.90
20594;DHT22;10455;48.732;10.266;2022-07-22T05:07:45;27.90;99.90
20594;DHT22;10455;48.732;10.266;2022-07-22T05:12:47;28.90;95.60
20594;DHT22;10455;48.732;10.266;2022-07-22T05:17:49;28.70;96.00
20594;DHT22;10455;48.732;10.266;2022-07-22T05:22:54;30.70;92.80
20594;DHT22;10455;48.732;10.266;2022-07-22T05:27:59;31.60;90.60
20594;DHT22;10455;48.732;10.266;2022-07-22T05:33:01;32.60;88.20
20594;DHT22;10455;48.732;10.266;2022-07-22T05:38:05;33.30;85.20
20594;DHT22;10455;48.732;10.266;2022-07-22T05:43:07;33.70;81.50
20594;DHT22;10455;48.732;10.266;2022-07-22T05:48:09;34.30;79.80
20594;DHT22;10455;48.732;10.266;2022-07-22T05:53:13;33.70;80.40
20594;DHT22;10455;48.732;10.266;2022-07-22T05:58:15;33.70;80.70
20594;DHT22;10455;48.732;10.266;2022-07-22T06:03:17;34.60;78.90
20594;DHT22;10455;48.732;10.266;2022-07-22T06:08:21;35.00;78.50
20594;DHT22;10455;48.732;10.266;2022-07-22T06:13:23;36.30;75.70
20594;DHT22;10455;48.732;10.266;2022-07-22T06:18:25;35.70;74.60
20594;DHT22;10455;48.732;10.266;2022-07-22T06:23:28;33.20;78.60
20594;DHT22;10455;48.732;10.266;2022-07-22T06:28:31;32.30;81.70
20594;DHT22;10455;48.732;10.266;2022-07-22T06:33:33;32.30;82.30
20594;DHT22;10455;48.732;10.266;2022-07-22T06:38:36;31.60;84.80
20594;DHT22;10455;48.732;10.266;2022-07-22T06:43:39;31.70;82.90
20594;DHT22;10455;48.732;10.266;2022-07-22T06:48:41;33.10;81.70
20594;DHT22;10455;48.732;10.266;2022-07-22T06:53:45;33.00;81.60
20594;DHT22;10455;48.732;10.266;2022-07-22T06:58:47;33.10;80.80
20594;DHT22;10455;48.732;10.266;2022-07-22T07:03:49;32.00;82.40
20594;DHT22;10455;48.732;10.266;2022-07-22T07:08:53;31.00;85.40
20594;DHT22;10455;48.732;10.266;2022-07-22T07:13:55;30.60;87.70
20594;DHT22;10455;48.732;10.266;2022-07-22T07:18:57;31.40;85.20
20594;DHT22;10455;48.732;10.266;2022-07-22T07:24:01;32.10;83.90
20594;DHT22;10455;48.732;10.266;2022-07-22T07:29:03;32.40;81.00
20594;DHT22;10455;48.732;10.266;2022-07-22T07:34:06;32.80;83.30
20594;DHT22;10455;48.732;10.266;2022-07-22T07:39:09;33.40;81.10
20594;DHT22;10455;48.732;10.266;2022-07-22T07:44:11;33.20;80.60
20594;DHT22;10455;48.732;10.266;2022-07-22T07:49:14;33.10;79.20
20594;DHT22;10455;48.732;10.266;2022-07-22T07:54:18;32.60;79.40
20594;DHT22;10455;48.732;10.266;2022-07-22T07:59:21;35.20;74.60
20594;DHT22;10455;48.732;10.266;2022-07-22T08:04:23;36.30;69.60
20594;DHT22;10455;48.732;10.266;2022-07-22T08:09:26;36.60;69.00
20594;DHT22;10455;48.732;10.266;2022-07-22T08:14:29;36.40;69.90
20594;DHT22;10455;48.732;10.266;2022-07-22T08:19:31;36.60;65.70
20594;DHT22;10455;48.732;10.266;2022-07-22T08:24:35;36.50;67.70
20594;DHT22;10455;48.732;10.266;2022-07-22T08:29:37;34.60;73.80
20594;DHT22;10455;48.732;10.266;2022-07-22T08:34:39;35.60;69.60
20594;DHT22;10455;48.732;10.266;2022-07-22T08:39:42;36.20;67.70
20594;DHT22;10455;48.732;10.266;2022-07-22T08:44:45;36.70;64.60
20594;DHT22;10455;48.732;10.266;2022-07-22T08:49:47;35.80;67.60
20594;DHT22;10455;48.732;10.266;2022-07-22T08:54:51;36.20;68.30
20594;DHT22;10455;48.732;10.266;2022-07-22T08:59:55;36.20;67.00
20594;DHT22;10455;48.732;10.266;2022-07-22T09:04:59;37.70;61.50
20594;DHT22;10455;48.732;10.266;2022-07-22T09:10:05;38.00;62.10
20594;DHT22;10455;48.732;10.266;2022-07-22T09:15:08;38.10;61.60
20594;DHT22;10455;48.732;10.266;2022-07-22T09:20:16;37.90;61.60
20594;DHT22;10455;48.732;10.266;2022-07-22T09:25:23;35.80;68.30
20594;DHT22;10455;48.732;10.266;2022-07-22T09:30:26;33.70;71.80
20594;DHT22;10455;48.732;10.266;2022-07-22T09:35:29;36.60;65.40
20594;DHT22;10455;48.732;10.266;2022-07-22T09:40:34;37.10;67.90
20594;DHT22;10455;48.732;10.266;2022-07-22T09:45:44;37.10;65.00
20594;DHT22;10455;48.732;10.266;2022-07-22T09:50:48;36.70;67.60
20594;DHT22;10455;48.732;10.266;2022-07-22T09:55:52;35.90;67.00
20594;DHT22;10455;48.732;10.266;2022-07-22T10:00:55;35.50;68.70
20594;DHT22;10455;48.732;10.266;2022-07-22T10:06:00;36.00;69.00
20594;DHT22;10455;48.732;10.266;2022-07-22T10:11:06;36.10;66.30
20594;DHT22;10455;48.732;10.266;2022-07-22T10:16:09;34.80;69.20
20594;DHT22;10455;48.732;10.266;2022-07-22T10:21:11;35.90;65.40
20594;DHT22;10455;48.732;10.266;2022-07-22T10:26:16;36.20;64.60
20594;DHT22;10455;48.732;10.266;2022-07-22T10:31:21;36.70;63.30
20594;DHT22;10455;48.732;10.266;2022-07-22T10:36:32;38.20;61.70
20594;DHT22;10455;48.732;10.266;2022-07-22T10:41:38;37.60;60.80
20594;DHT22;10455;48.732;10.266;2022-07-22T10:46:50;36.90;61.60
20594;DHT22;10455;48.732;10.266;2022-07-22T10:52:09;36.60;65.70
20594;DHT22;10455;48.732;10.266;2022-07-22T10:57:29;38.30;60.50
20594;DHT22;10455;48.732;10.266;2022-07-22T11:02:31;39.20;59.20
20594;DHT22;10455;48.732;10.266;2022-07-22T11:07:41;37.70;59.30
20594;DHT22;10455;48.732;10.266;2022-07-22T11:12:45;35.20;63.10
20594;DHT22;10455;48.732;10.266;2022-07-22T11:17:47;36.40;62.40
20594;DHT22;10455;48.732;10.266;2022-07-22T11:22:49;36.40;60.70
20594;DHT22;10455;48.732;10.266;2022-07-22T11:27:54;36.80;60.70
20594;DHT22;10455;48.732;10.266;2022-07-22T11:32:58;38.50;57.20
20594;DHT22;10455;48.732;10.266;2022-07-22T11:38:00;40.00;55.50
20594;DHT22;10455;48.732;10.266;2022-07-22T11:43:04;39.70;55.90
20594;DHT22;10455;48.732;10.266;2022-07-22T11:48:09;38.20;58.00
20594;DHT22;10455;48.732;10.266;2022-07-22T11:53:11;37.20;60.70
20594;DHT22;10455;48.732;10.266;2022-07-22T11:58:15;38.90;57.80
20594;DHT22;10455;48.732;10.266;2022-07-22T12:03:18;36.60;63.50
20594;DHT22;10455;48.732;10.266;2022-07-22T12:08:20;38.10;56.90
20594;DHT22;10455;48.732;10.266;2022-07-22T12:13:28;36.70;58.50
20594;DHT22;10455;48.732;10.266;2022-07-22T12:18:30;38.40;56.90
20594;DHT22;10455;48.732;10.266;2022-07-22T12:23:49;36.90;58.40
20594;DHT22;10455;48.732;10.266;2022-07-22T12:29:18;37.60;57.70
20594;DHT22;10455;48.732;10.266;2022-07-22T12:34:35;36.90;57.80
20594;DHT22;10455;48.732;10.266;2022-07-22T12:39:37;36.80;58.00
20594;DHT22;10455;48.732;10.266;2022-07-22T12:44:50;37.70;56.40
20594;DHT22;10455;48.732;10.266;2022-07-22T12:49:52;35.10;59.10
20594;DHT22;10455;48.732;10.266;2022-07-22T12:54:54;34.90;61.20
20594;DHT22;10455;48.732;10.266;2022-07-22T12:59:58;36.20;58.40
20594;DHT22;10455;48.732;10.266;2022-07-22T13:05:00;35.70;58.60
20594;DHT22;10455;48.732;10.266;2022-07-22T13:10:03;37.60;56.80
20594;DHT22;10455;48.732;10.266;2022-07-22T13:15:08;37.10;55.00
20594;DHT22;10455;48.732;10.266;2022-07-22T13:20:11;36.80;55.80
20594;DHT22;10455;48.732;10.266;2022-07-22T13:25:16;37.30;55.00
20594;DHT22;10455;48.732;10.266;2022-07-22T13:30:20;38.40;53.30
20594;DHT22;10455;48.732;10.266;2022-07-22T13:35:22;39.40;51.60
20594;DHT22;10455;48.732;10.266;2022-07-22T13:40:24;39.70;51.90
20594;DHT22;10455;48.732;10.266;2022-07-22T13:45:28;40.60;49.60
20594;DHT22;10455;48.732;10.266;2022-07-22T13:50:30;40.70;49.70
20594;DHT22;10455;48.732;10.266;2022-07-22T13:55:32;41.70;48.80
20594;DHT22;10455;48.732;10.266;2022-07-22T14:00:36;38.50;51.20
20594;DHT22;10455;48.732;10.266;2022-07-22T14:05:38;37.90;52.30
20594;DHT22;10455;48.732;10.266;2022-07-22T14:10:40;39.30;51.60
20594;DHT22;10455;48.732;10.266;2022-07-22T14:15:44;39.20;50.10
20594;DHT22;10455;48.732;10.266;2022-07-22T14:20:46;40.30;49.10
20594;DHT22;10455;48.732;10.266;2022-07-22T14:25:49;40.20;49.00
20594;DHT22;10455;48.732;10.266;2022-07-22T14:30:52;40.10;48.00
20594;DHT22;10455;48.732;10.266;2022-07-22T14:35:54;41.80;47.30
20594;DHT22;10455;48.732;10.266;2022-07-22T14:40:57;41.10;46.70
20594;DHT22;10455;48.732;10.266;2022-07-22T14:46:00;39.50;48.20
20594;DHT22;10455;48.732;10.266;2022-07-22T14:51:03;39.80;48.30
20594;DHT22;10455;48.732;10.266;2022-07-22T14:56:05;39.90;48.30
20594;DHT22;10455;48.732;10.266;2022-07-22T15:01:09;41.10;47.60
20594;DHT22;10455;48.732;10.266;2022-07-22T15:06:11;40.20;48.20
20594;DHT22;10455;48.732;10.266;2022-07-22T15:11:13;40.10;47.70
20594;DHT22;10455;48.732;10.266;2022-07-22T15:16:17;38.70;48.70
20594;DHT22;10455;48.732;10.266;2022-07-22T15:21:19;39.70;47.60
20594;DHT22;10455;48.732;10.266;2022-07-22T15:26:22;40.60;47.30
20594;DHT22;10455;48.732;10.266;2022-07-22T15:31:27;42.00;44.50
20594;DHT22;10455;48.732;10.266;2022-07-22T15:36:30;40.90;45.30
20594;DHT22;10455;48.732;10.266;2022-07-22T15:41:32;39.30;46.70
20594;DHT22;10455;48.732;10.266;2022-07-22T15:46:37;39.20;48.10
20594;DHT22;10455;48.732;10.266;2022-07-22T15:51:40;39.80;47.70
20594;DHT22;10455;48.732;10.266;2022-07-22T15:56:42;40.30;46.10
20594;DHT22;10455;48.732;10.266;2022-07-22T16:01:46;40.80;45.00
20594;DHT22;10455;48.732;10.266;2022-07-22T16:06:48;41.40;45.60
20594;DHT22;10455;48.732;10.266;2022-07-22T16:11:50;40.90;46.60
20594;DHT22;10455;48.732;10.266;2022-07-22T16:16:53;40.10;47.20
20594;DHT22;10455;48.732;10.266;2022-07-22T16:21:56;40.90;47.20
20594;DHT22;10455;48.732;10.266;2022-07-22T16:26:58;40.90;46.70
20594;DHT22;10455;48.732;10.266;2022-07-22T16:32:02;40.60;47.60
20594;DHT22;10455;48.732;10.266;2022-07-22T16:37:04;40.40;47.50
20594;DHT22;10455;48.732;10.266;2022-07-22T16:42:06;40.30;47.20
20594;DHT22;10455;48.732;10.266;2022-07-22T16:47:10;38.40;48.60
20594;DHT22;10455;48.732;10.266;2022-07-22T16:52:12;36.00;50.50
20594;DHT22;10455;48.732;10.266;2022-07-22T16:57:14;34.90;52.60
20594;DHT22;10455;48.732;10.266;2022-07-22T17:02:17;33.90;55.30
20594;DHT22;10455;48.732;10.266;2022-07-22T17:07:19;33.30;55.70
20594;DHT22;10455;48.732;10.266;2022-07-22T17:12:21;33.10;56.80
20594;DHT22;10455;48.732;10.266;2022-07-22T17:17:25;32.90;56.60
20594;DHT22;10455;48.732;10.266;2022-07-22T17:22:28;32.50;57.50
20594;DHT22;10455;48.732;10.266;2022-07-22T17:27:31;32.20;58.30
20594;DHT22;10455;48.732;10.266;2022-07-22T17:32:35;32.30;59.20
20594;DHT22;10455;48.732;10.266;2022-07-22T17:37:37;32.50;58.70
20594;DHT22;10455;48.732;10.266;2022-07-22T17:42:39;32.40;60.00
20594;DHT22;10455;48.732;10.266;2022-07-22T17:47:43;32.20;58.30
20594;DHT22;10455;48.732;10.266;2022-07-22T17:52:45;32.00;59.30
20594;DHT22;10455;48.732;10.266;2022-07-22T17:57:48;31.70;60.90
20594;DHT22;10455;48.732;10.266;2022-07-22T18:02:52;31.40;61.50
20594;DHT22;10455;48.732;10.266;2022-07-22T18:07:54;30.90;64.90
20594;DHT22;10455;48.732;10.266;2022-07-22T18:12:56;30.40;69.40
20594;DHT22;10455;48.732;10.266;2022-07-22T18:18:00;29.40;71.90
20594;DHT22;10455;48.732;10.266;2022-07-22T18:23:02;28.50;74.70
20594;DHT22;10455;48.732;10.266;2022-07-22T18:28:05;28.00;74.80
20594;DHT22;10455;48.732;10.266;2022-07-22T18:33:08;27.60;76.80
20594;DHT22;10455;48.732;10.266;2022-07-22T18:38:11;26.90;80.70
20594;DHT22;10455;48.732;10.266;2022-07-22T18:43:13;26.40;84.10
20594;DHT22;10455;48.732;10.266;2022-07-22T18:48:16;26.00;84.40
20594;DHT22;10455;48.732;10.266;2022-07-22T18:53:19;25.60;86.40
20594;DHT22;10455;48.732;10.266;2022-07-22T18:58:21;25.20;86.00
20594;DHT22;10455;48.732;10.266;2022-07-22T19:03:25;24.90;88.80
20594;DHT22;10455;48.732;10.266;2022-07-22T19:08:27;24.60;92.40
20594;DHT22;10455;48.732;10.266;2022-07-22T19:13:29;24.20;93.00
20594;DHT22;10455;48.732;10.266;2022-07-22T19:18:32;23.80;93.70
20594;DHT22;10455;48.732;10.266;2022-07-22T19:23:35;23.50;94.30
20594;DHT22;10455;48.732;10.266;2022-07-22T19:28:37;23.40;95.30
20594;DHT22;10455;48.732;10.266;2022-07-22T19:33:41;23.40;95.50
20594;DHT22;10455;48.732;10.266;2022-07-22T19:38:43;23.20;96.20
20594;DHT22;10455;48.732;10.266;2022-07-22T19:43:45;23.00;96.60
20594;DHT22;10455;48.732;10.266;2022-07-22T19:48:49;22.90;97.10
20594;DHT22;10455;48.732;10.266;2022-07-22T19:53:53;22.70;97.60
20594;DHT22;10455;48.732;10.266;2022-07-22T19:58:55;22.80;97.90
20594;DHT22;10455;48.732;10.266;2022-07-22T20:03:59;22.70;98.10
20594;DHT22;10455;48.732;10.266;2022-07-22T20:09:02;22.50;98.50
20594;DHT22;10455;48.732;10.266;2022-07-22T20:14:04;22.40;98.50
20594;DHT22;10455;48.732;10.266;2022-07-22T20:19:09;22.40;99.30
20594;DHT22;10455;48.732;10.266;2022-07-22T20:24:11;22.00;99.90
20594;DHT22;10455;48.732;10.266;2022-07-22T20:29:13;21.70;99.90
20594;DHT22;10455;48.732;10.266;2022-07-22T20:34:17;21.60;99.90
20594;DHT22;10455;48.732;10.266;2022-07-22T20:39:19;21.40;99.90
20594;DHT22;10455;48.732;10.266;2022-07-22T20:44:21;21.20;99.90
20594;DHT22;10455;48.732;10.266;2022-07-22T20:49:26;21.10;99.90
20594;DHT22;10455;48.732;10.266;2022-07-22T20:54:29;21.10;99.90
20594;DHT22;10455;48.732;10.266;2022-07-22T20:59:31;20.90;99.90
20594;DHT22;10455;48.732;10.266;2022-07-22T21:04:34;20.80;99.90
20594;DHT22;10455;48.732;10.266;2022-07-22T21:09:36;20.90;99.90
20594;DHT22;10455;48.732;10.266;2022-07-22T21:14:39;21.30;99.90
20594;DHT22;10455;48.732;10.266;2022-07-22T21:19:42;21.60;99.90
20594;DHT22;10455;48.732;10.266;2022-07-22T21:24:44;21.80;99.90
20594;DHT22;10455;48.732;10.266;2022-07-22T21:29:47;21.90;99.90
20594;DHT22;10455;48.732;10.266;2022-07-22T21:34:50;21.70;99.90
20594;DHT22;10455;48.732;10.266;2022-07-22T21:39:53;21.60;99.90
20594;DHT22;10455;48.732;10.266;2022-07-22T21:44:55;21.50;99.90
20594;DHT22;10455;48.732;10.266;2022-07-22T21:49:59;21.40;99.90
20594;DHT22;10455;48.732;10.266;2022-07-22T21:55:01;21.40;99.90
20594;DHT22;10455;48.732;10.266;2022-07-22T22:00:05;21.60;99.90
20594;DHT22;10455;48.732;10.266;2022-07-22T22:05:10;21.60;99.90
20594;DHT22;10455;48.732;10.266;2022-07-22T22:10:12;21.40;99.90
20594;DHT22;10455;48.732;10.266;2022-07-22T22:15:14;21.30;99.90
20594;DHT22;10455;48.732;10.266;2022-07-22T22:20:21;21.40;99.90
20594;DHT22;10455;48.732;10.266;2022-07-22T22:25:24;21.60;99.90
20594;DHT22;10455;48.732;10.266;2022-07-22T22:30:26;21.50;99.90
20594;DHT22;10455;48.732;10.266;2022-07-22T22:35:29;21.70;99.90
20594;DHT22;10455;48.732;10.266;2022-07-22T22:40:32;21.60;99.90
20594;DHT22;10455;48.732;10.266;2022-07-22T22:45:34;21.90;99.90
20594;DHT22;10455;48.732;10.266;2022-07-22T22:50:38;22.10;99.90
20594;DHT22;10455;48.732;10.266;2022-07-22T22:55:40;22.00;99.90
20594;DHT22;10455;48.732;10.266;2022-07-22T23:00:42;21.40;99.90
20594;DHT22;10455;48.732;10.266;2022-07-22T23:05:46;21.20;99.90
20594;DHT22;10455;48.732;10.266;2022-07-22T23:10:48;21.10;99.90
20594;DHT22;10455;48.732;10.266;2022-07-22T23:15:50;20.90;99.90
20594;DHT22;10455;48.732;10.266;2022-07-22T23:20:54;20.80;99.90
20594;DHT22;10455;48.732;10.266;2022-07-22T23:25:56;20.90;99.90
20594;DHT22;10455;48.732;10.266;2022-07-22T23:30:58;21.00;99.90
20594;DHT22;10455;48.732;10.266;2022-07-22T23:36:02;21.00;99.90
20594;DHT22;10455;48.732;10.266;2022-07-22T23:41:04;21.00;99.90
20594;DHT22;10455;48.732;10.266;2022-07-22T23:46:06;21.10;99.90
20594;DHT22;10455;48.732;10.266;2022-07-22T23:51:10;21.40;99.90
20594;DHT22;10455;48.732;10.266;2022-07-22T23:56:12;21.50;99.90
